Time;durP1;ratioP1;P1;durP2;ratioP2;P2;SDS_P1;SDS_P2;PMS_P1;PMS_P2;Temp;Humidity;BMP_temperature;BMP_pressure;BME280_temperature;BME280_humidity;BME280_pressure;Samples;Min_cycle;Max_cycle;Signal;HPM_P1;HPM_P2
2022/07/01 00:02:08;;;;;;;;;;;;;;;22.55;100.00;153324.94;1652558;87;21230;-62
2022/07/01 00:04:35;;;;;;;;;;;;;;;22.52;100.00;153317.09;1652838;87;20185;-61
2022/07/01 00:07:21;;;;;;;;;;;;;;;22.49;100.00;153309.25;1652703;87;20170;-61
2022/07/01 00:09:47;;;;;;;;;;;;;;;22.48;100.00;153306.64;1651248;86;20150;-60
2022/07/01 00:12:15;;;;;;;;;;;;;;;22.46;100.00;153301.36;1629658;86;20140;-61
2022/07/01 00:14:42;;;;;;;;;;;;;;;22.43;100.00;153294.80;1626154;87;21105;-61
2022/07/01 00:17:08;;;;;;;;;;;;;;;22.37;100.00;153277.78;1626038;87;20493;-60
2022/07/01 00:19:35;;;;;;;;;;;;;;;22.32;100.00;153267.33;1625980;87;20216;-60
2022/07/01 00:22:02;;;;;;;;;;;;;;;22.31;100.00;153264.72;1626008;88;20461;-60
2022/07/01 00:24:29;;;;;;;;;;;;;;;22.32;100.00;153267.33;1626158;88;20252;-61
2022/07/01 00:26:55;;;;;;;;;;;;;;;22.32;100.00;153267.33;1626017;88;21096;-62
2022/07/01 00:29:22;;;;;;;;;;;;;;;;;;1625611;87;20152;-62
2022/07/01 00:31:48;;;;;;;;;;;;;;;22.37;100.00;153277.78;1625824;88;20686;-62
2022/07/01 00:34:15;;;;;;;;;;;;;;;22.33;100.00;153268.67;1625709;88;20185;-62
2022/07/01 00:36:42;;;;;;;;;;;;;;;22.29;100.00;153259.50;1625915;87;20207;-62
2022/07/01 00:39:09;;;;;;;;;;;;;;;22.25;100.00;153249.03;1625723;87;21149;-61
2022/07/01 00:41:35;;;;;;;;;;;;;;;22.23;100.00;153243.81;1625994;87;20480;-62
2022/07/01 00:44:03;;;;;;;;;;;;;;;22.20;100.00;153235.92;1626044;88;20467;-62
2022/07/01 00:46:30;;;;;;;;;;;;;;;22.17;100.00;153228.09;1625959;87;20203;-62
2022/07/01 00:48:58;;;;;;;;;;;;;;;22.19;100.00;153233.31;1626134;87;20251;-63
2022/07/01 00:51:24;;;;;;;;;;;;;;;22.18;100.00;153230.69;1626071;88;21248;-63
2022/07/01 00:53:51;;;;;;;;;;;;;;;22.17;100.00;153228.09;1626096;87;20193;-62
2022/07/01 00:56:18;;;;;;;;;;;;;;;22.17;100.00;153228.09;1626035;88;20212;-62
2022/07/01 00:58:45;;;;;;;;;;;;;;;22.18;100.00;153230.69;1626041;87;20161;-63
2022/07/01 01:01:12;;;;;;;;;;;;;;;22.17;100.00;153229.41;1607856;88;20375;-62
2022/07/01 01:03:39;;;;;;;;;;;;;;;22.19;100.00;153233.31;1626023;88;21232;-62
2022/07/01 01:06:05;;;;;;;;;;;;;;;22.21;100.00;153237.25;1648961;87;20159;-62
2022/07/01 01:08:32;;;;;;;;;;;;;;;22.20;100.00;153235.92;1652777;87;20452;-62
2022/07/01 01:10:59;;;;;;;;;;;;;;;22.17;100.00;153228.09;1651786;87;21080;-62
2022/07/01 01:13:26;;;;;;;;;;;;;;;22.14;100.00;153220.25;1661270;86;20174;-62
2022/07/01 01:15:53;;;;;;;;;;;;;;;22.11;100.00;153212.41;1662800;86;21236;-62
2022/07/01 01:18:20;;;;;;;;;;;;;;;22.12;100.00;153215.02;1663241;86;20117;-62
2022/07/01 01:20:47;;;;;;;;;;;;;;;22.16;100.00;153225.47;1661060;86;20371;-61
2022/07/01 01:23:14;;;;;;;;;;;;;;;22.16;100.00;153225.47;1662927;86;20692;-62
2022/07/01 01:25:40;;;;;;;;;;;;;;;22.18;100.00;153232.03;1662708;86;20213;-62
2022/07/01 01:28:07;;;;;;;;;;;;;;;22.17;100.00;153229.41;1663124;86;21226;-62
2022/07/01 01:30:35;;;;;;;;;;;;;;;22.15;100.00;153222.86;1663000;86;20154;-62
2022/07/01 01:33:02;;;;;;;;;;;;;;;22.14;100.00;153221.58;1663176;86;20189;-61
2022/07/01 01:35:29;;;;;;;;;;;;;;;22.12;100.00;153216.34;1662984;86;20440;-61
2022/07/01 01:37:56;;;;;;;;;;;;;;;22.17;100.00;153228.09;1663127;86;20206;-62
2022/07/01 01:40:23;;;;;;;;;;;;;;;22.18;100.00;153230.69;1663062;86;21154;-62
2022/07/01 01:42:49;;;;;;;;;;;;;;;22.23;99.35;153242.48;1662860;86;20481;-62
2022/07/01 01:45:16;;;;;;;;;;;;;;;22.28;98.47;153256.87;1662475;86;20180;-62
2022/07/01 01:47:44;;;;;;;;;;;;;;;22.32;97.46;153267.33;1662579;86;20417;-62
2022/07/01 01:50:11;;;;;;;;;;;;;;;22.36;96.94;153275.17;1662727;86;20430;-62
2022/07/01 01:52:38;;;;;;;;;;;;;;;22.33;96.63;153269.95;1663063;86;21282;-62
2022/07/01 01:55:06;;;;;;;;;;;;;;;22.30;96.66;153262.11;1662686;86;20406;-62
2022/07/01 01:57:33;;;;;;;;;;;;;;;22.29;96.90;153259.50;1662671;86;20181;-62
2022/07/01 02:00:01;;;;;;;;;;;;;;;22.30;96.78;153262.11;1662787;86;20165;-63
2022/07/01 02:02:30;;;;;;;;;;;;;;;22.29;96.52;153259.50;1663216;86;20173;-62
2022/07/01 02:04:56;;;;;;;;;;;;;;;22.27;96.35;153252.94;1662773;86;21153;-62
2022/07/01 02:07:23;;;;;;;;;;;;;;;22.25;96.47;153249.03;1662415;86;20198;-62
2022/07/01 02:09:50;;;;;;;;;;;;;;;22.25;96.83;153249.03;1662920;86;20185;-61
2022/07/01 02:12:17;;;;;;;;;;;;;;;22.27;96.82;153254.27;1663294;86;20166;-62
2022/07/01 02:14:44;;;;;;;;;;;;;;;22.27;96.88;153252.94;1659699;85;20438;-62
2022/07/01 02:17:11;;;;;;;;;;;;;;;22.25;96.95;153249.03;1658653;86;20704;-61
2022/07/01 02:19:38;;;;;;;;;;;;;;;22.24;96.98;153246.44;1658678;86;20201;-61
2022/07/01 02:22:04;;;;;;;;;;;;;;;22.25;96.96;153247.72;1659661;85;20158;-61
2022/07/01 02:24:31;;;;;;;;;;;;;;;22.25;96.97;153249.03;1659460;85;20426;-61
2022/07/01 02:26:58;;;;;;;;;;;;;;;22.25;97.65;153249.03;1659138;85;20138;-61
2022/07/01 02:29:25;;;;;;;;;;;;;;;22.27;97.93;153252.94;1659198;86;21143;-61
2022/07/01 02:31:51;;;;;;;;;;;;;;;22.25;97.62;153249.03;1659083;85;20205;-62
2022/07/01 02:34:18;;;;;;;;;;;;;;;22.24;97.56;153246.44;1659697;86;20363;-62
2022/07/01 02:36:45;;;;;;;;;;;;;;;22.26;97.29;153251.66;1659563;85;20467;-62
2022/07/01 02:39:12;;;;;;;;;;;;;;;22.28;96.86;153256.87;1659469;85;20173;-61
2022/07/01 02:44:24;;;;;;;;;;;;;;;22.27;96.34;153254.27;1659579;85;20130;-61
2022/07/01 02:46:51;;;;;;;;;;;;;;;22.25;96.27;153247.72;1656639;86;20185;-60
2022/07/01 02:49:18;;;;;;;;;;;;;;;22.22;96.32;153241.20;1659076;85;20131;-60
2022/07/01 02:51:44;;;;;;;;;;;;;;;22.23;96.68;153242.48;1658729;85;20228;-60
2022/07/01 02:54:11;;;;;;;;;;;;;;;22.23;96.93;153243.81;1658355;86;21812;-60
2022/07/01 02:56:38;;;;;;;;;;;;;;;22.23;96.92;153243.81;1659434;86;20134;-60
2022/07/01 02:59:05;;;;;;;;;;;;;;;22.24;96.92;153246.44;1659949;85;20309;-60
2022/07/01 03:01:31;;;;;;;;;;;;;;;22.24;97.20;153246.44;1659438;86;20149;-60
2022/07/01 03:03:58;;;;;;;;;;;;;;;22.25;97.24;153249.03;1659705;86;20502;-61
2022/07/01 03:06:25;;;;;;;;;;;;;;;22.25;97.37;153249.03;1659675;86;21650;-61
2022/07/01 03:08:51;;;;;;;;;;;;;;;22.27;97.33;153252.94;1659382;85;20142;-61
2022/07/01 03:11:18;;;;;;;;;;;;;;;22.29;97.42;153259.50;1632608;85;20187;-61
2022/07/01 03:13:45;;;;;;;;;;;;;;;22.32;96.85;153267.33;1615161;87;20192;-61
2022/07/01 03:16:11;;;;;;;;;;;;;;;22.40;96.80;153285.62;1612516;87;20191;-60
2022/07/01 03:18:38;;;;;;;;;;;;;;;22.44;96.33;153296.14;1612469;87;21216;-60
2022/07/01 03:21:05;;;;;;;;;;;;;;;22.47;95.83;153304.03;1612387;87;20179;-61
2022/07/01 03:23:32;;;;;;;;;;;;;;;22.46;95.44;153301.36;1612497;87;20176;-60
2022/07/01 03:25:59;;;;;;;;;;;;;;;22.48;95.45;153306.64;1612607;87;20602;-60
2022/07/01 03:28:26;;;;;;;;;;;;;;;22.52;95.24;153315.77;1612402;89;20176;-61
2022/07/01 03:30:52;;;;;;;;;;;;;;;22.56;95.25;153326.27;1612473;88;21951;-61
2022/07/01 03:33:19;;;;;;;;;;;;;;;22.61;95.13;153339.34;1612342;89;20191;-61
2022/07/01 03:35:46;;;;;;;;;;;;;;;22.68;94.86;153356.34;1612543;87;20152;-61
2022/07/01 03:38:13;;;;;;;;;;;;;;;22.77;94.35;153379.88;1612396;89;20408;-61
2022/07/01 03:40:40;;;;;;;;;;;;;;;22.91;93.59;153415.19;1612442;89;20187;-61
2022/07/01 03:43:09;;;;;;;;;;;;;;;22.98;92.86;153433.50;1612602;88;21231;-61
2022/07/01 03:45:35;;;;;;;;;;;;;;;23.10;92.48;153462.31;1612492;87;20211;-62
2022/07/01 03:48:02;;;;;;;;;;;;;;;23.20;91.55;153487.17;1612503;88;20191;-61
2022/07/01 03:50:29;;;;;;;;;;;;;;;23.24;90.90;153497.64;1612562;89;20180;-61
2022/07/01 03:55:41;;;;;;;;;;;;;;;23.27;90.31;153506.86;1612327;89;21147;-61
2022/07/01 03:58:08;;;;;;;;;;;;;;;23.33;89.88;153521.27;1612062;89;20148;-61
2022/07/01 04:00:35;;;;;;;;;;;;;;;23.37;89.39;153530.39;1612104;89;20211;-61
2022/07/01 04:03:03;;;;;;;;;;;;;;;23.38;88.95;153533.02;1612276;87;20215;-60
2022/07/01 04:05:34;;;;;;;;;;;;;;;23.39;89.07;153536.97;1612426;88;20219;-60
2022/07/01 04:08:02;;;;;;;;;;;;;;;23.44;89.15;153550.03;1612430;88;21209;-61
2022/07/01 04:10:32;;;;;;;;;;;;;;;23.55;88.80;153576.23;1625379;87;20167;-61
2022/07/01 04:13:01;;;;;;;;;;;;;;;23.65;88.22;153601.06;1650965;86;20328;-62
2022/07/01 04:15:29;;;;;;;;;;;;;;;23.74;87.72;153624.66;1651230;87;20612;-62
2022/07/01 04:17:55;;;;;;;;;;;;;;;23.84;87.32;153649.53;1651235;87;20241;-62
2022/07/01 04:20:22;;;;;;;;;;;;;;;23.93;86.57;153673.08;1651106;87;21128;-61
2022/07/01 04:22:49;;;;;;;;;;;;;;;23.96;86.01;153680.92;1651035;87;20480;-61
2022/07/01 04:25:16;;;;;;;;;;;;;;;24.05;86.02;153701.95;1651067;87;20189;-62
2022/07/01 04:27:43;;;;;;;;;;;;;;;24.12;85.32;153721.59;1651084;87;20641;-61
2022/07/01 04:30:11;;;;;;;;;;;;;;;24.16;84.89;153730.72;1651081;87;20145;-61
2022/07/01 04:32:38;;;;;;;;;;;;;;;24.20;84.45;153741.19;1651175;87;21748;-61
2022/07/01 04:35:05;;;;;;;;;;;;;;;24.23;84.13;153749.09;1651104;87;20178;-61
2022/07/01 04:37:32;;;;;;;;;;;;;;;24.25;83.76;153754.33;1651094;87;20416;-61
2022/07/01 04:39:59;;;;;;;;;;;;;;;24.20;83.24;153739.91;1651153;87;20947;-61
2022/07/01 04:42:27;;;;;;;;;;;;;;;24.18;83.55;153737.28;1652035;87;20185;-61
2022/07/01 04:44:53;;;;;;;;;;;;;;;24.24;83.39;153751.70;1652690;87;21218;-61
2022/07/01 04:47:22;;;;;;;;;;;;;;;24.35;82.80;153779.20;1652580;85;20122;-61
2022/07/01 04:49:49;;;;;;;;;;;;;;;24.38;81.95;153785.72;1652662;87;20233;-61
2022/07/01 04:52:15;;;;;;;;;;;;;;;24.42;82.30;153797.53;1652583;87;20135;-61
2022/07/01 04:54:42;;;;;;;;;;;;;;;24.46;81.05;153806.70;1652652;87;20181;-61
2022/07/01 04:57:09;;;;;;;;;;;;;;;24.51;80.78;153819.78;1652615;87;21215;-61
2022/07/01 04:59:36;;;;;;;;;;;;;;;24.60;80.35;153843.34;1652567;87;20185;-60
2022/07/01 05:02:03;;;;;;;;;;;;;;;24.70;79.89;153866.95;1652807;87;20202;-61
2022/07/01 05:04:30;;;;;;;;;;;;;;;24.79;79.45;153890.56;1652870;87;20677;-60
2022/07/01 05:06:57;;;;;;;;;;;;;;;24.86;79.41;153908.88;1652762;86;20206;-62
2022/07/01 05:09:24;;;;;;;;;;;;;;;25.00;78.72;153942.95;1652547;86;21236;-61
2022/07/01 05:11:50;;;;;;;;;;;;;;;25.09;77.96;153965.22;1617116;87;20641;-60
2022/07/01 05:14:17;;;;;;;;;;;;;;;25.11;77.54;153971.80;1612576;87;20192;-62
2022/07/01 05:16:44;;;;;;;;;;;;;;;25.15;77.61;153980.94;1612504;87;20152;-61
2022/07/01 05:21:56;;;;;;;;;;;;;;;25.28;77.47;154013.69;1612601;88;21225;-60
2022/07/01 05:24:23;;;;;;;;;;;;;;;25.38;77.09;154039.91;1612476;87;20433;-61
2022/07/01 05:26:51;;;;;;;;;;;;;;;25.50;76.84;154068.77;1612633;88;20215;-61
2022/07/01 05:29:18;;;;;;;;;;;;;;;25.58;76.12;154089.77;1612508;88;20187;-61
2022/07/01 05:31:44;;;;;;;;;;;;;;;25.66;75.46;154110.70;1612495;88;20493;-61
2022/07/01 05:34:11;;;;;;;;;;;;;;;25.72;75.13;154126.42;1612292;87;21245;-61
2022/07/01 05:36:38;;;;;;;;;;;;;;;25.79;74.30;154142.19;1612568;87;20231;-62
2022/07/01 05:39:06;;;;;;;;;;;;;;;25.84;73.88;154155.28;1612145;89;20219;-61
2022/07/01 05:41:34;;;;;;;;;;;;;;;25.84;73.42;154155.28;1612253;88;20700;-61
2022/07/01 05:44:01;;;;;;;;;;;;;;;25.87;72.70;154163.14;1612368;87;20176;-62
2022/07/01 05:46:28;;;;;;;;;;;;;;;25.86;71.79;154161.84;1612413;89;21137;-62
2022/07/01 05:48:55;;;;;;;;;;;;;;;25.82;71.77;154150.03;1612791;88;20164;-62
2022/07/01 05:51:21;;;;;;;;;;;;;;;25.83;71.56;154152.66;1612341;88;20524;-62
2022/07/01 05:53:48;;;;;;;;;;;;;;;25.83;71.30;154152.66;1612441;88;20883;-62
2022/07/01 05:56:15;;;;;;;;;;;;;;;25.89;71.01;154168.37;1612395;89;20195;-62
2022/07/01 05:58:42;;;;;;;;;;;;;;;25.90;69.94;154171.00;1612557;87;21293;-62
2022/07/01 06:01:08;;;;;;;;;;;;;;;25.92;69.67;154174.94;1651743;85;20158;-61
2022/07/01 06:03:35;;;;;;;;;;;;;;;25.98;69.66;154192.00;1652646;87;20636;-61
2022/07/01 06:06:02;;;;;;;;;;;;;;;26.07;70.01;154212.95;1652118;87;20546;-61
2022/07/01 06:08:29;;;;;;;;;;;;;;;26.19;69.73;154243.14;1638100;87;20251;-61
2022/07/01 06:10:56;;;;;;;;;;;;;;;26.30;69.18;154273.30;1646975;86;21136;-61
2022/07/01 06:13:23;;;;;;;;;;;;;;;26.43;68.61;154304.78;1638452;85;20202;-62
2022/07/01 06:15:50;;;;;;;;;;;;;;;26.49;68.14;154319.16;1646073;86;20834;-61
2022/07/01 06:18:17;;;;;;;;;;;;;;;26.53;67.63;154330.98;1648296;85;20629;-60
2022/07/01 06:20:44;;;;;;;;;;;;;;;26.56;66.86;154337.55;1647668;86;20206;-61
2022/07/01 06:23:11;;;;;;;;;;;;;;;26.59;66.75;154346.70;1655243;86;21237;-61
2022/07/01 06:25:38;;;;;;;;;;;;;;;26.69;66.48;154370.33;1651260;85;20183;-62
2022/07/01 06:28:05;;;;;;;;;;;;;;;26.79;65.78;154396.53;1651874;85;20226;-63
2022/07/01 06:30:32;;;;;;;;;;;;;;;26.88;65.26;154420.22;1654162;85;20556;-63
2022/07/01 06:32:59;;;;;;;;;;;;;;;26.99;64.55;154446.42;1650472;85;20934;-63
2022/07/01 06:35:26;;;;;;;;;;;;;;;27.08;64.30;154470.06;1659443;85;20733;-64
2022/07/01 06:37:52;;;;;;;;;;;;;;;27.15;64.15;154487.06;1653403;85;20261;-62
2022/07/01 06:40:19;;;;;;;;;;;;;;;27.19;64.09;154496.27;1655743;85;20424;-63
2022/07/01 06:42:46;;;;;;;;;;;;;;;27.26;63.33;154514.61;1653623;85;20202;-63
2022/07/01 06:45:13;;;;;;;;;;;;;;;27.35;63.09;154538.25;1655225;85;20178;-64
2022/07/01 06:47:40;;;;;;;;;;;;;;;27.38;62.29;154546.11;1653087;85;21536;-63
2022/07/01 06:50:08;;;;;;;;;;;;;;;27.45;62.10;154564.47;1649790;85;20156;-63
2022/07/01 06:52:35;;;;;;;;;;;;;;;27.46;61.84;154567.08;1656802;85;20221;-63
2022/07/01 06:55:01;;;;;;;;;;;;;;;27.46;61.10;154567.08;1654956;85;20463;-63
2022/07/01 06:57:29;;;;;;;;;;;;;;;27.44;60.85;154561.84;1656350;85;20189;-63
2022/07/01 06:59:55;;;;;;;;;;;;;;;27.44;60.76;154561.84;1653145;85;21245;-63
2022/07/01 07:02:22;;;;;;;;;;;;;;;27.42;60.78;154556.59;1656500;85;21393;-63
2022/07/01 07:04:49;;;;;;;;;;;;;;;27.40;61.23;154551.34;1656581;85;20265;-63
2022/07/01 07:07:16;;;;;;;;;;;;;;;27.30;61.49;154525.09;1655654;85;20230;-64
2022/07/01 07:09:43;;;;;;;;;;;;;;;27.29;61.64;154523.81;1654390;85;20234;-63
2022/07/01 07:12:10;;;;;;;;;;;;;;;27.28;61.52;154519.86;1659287;85;21352;-63
2022/07/01 07:14:38;;;;;;;;;;;;;;;27.24;61.75;154510.70;1655860;84;21092;-63
2022/07/01 07:17:05;;;;;;;;;;;;;;;27.22;61.85;154505.47;1660242;84;20525;-63
2022/07/01 07:19:32;;;;;;;;;;;;;;;27.16;62.01;154489.69;1660704;86;20191;-63
2022/07/01 07:21:58;;;;;;;;;;;;;;;27.07;61.71;154467.39;1659760;84;20193;-63
2022/07/01 07:24:25;;;;;;;;;;;;;;;26.92;62.20;154428.08;1660458;84;21253;-63
2022/07/01 07:26:52;;;;;;;;;;;;;;;26.81;62.39;154401.77;1662145;85;20185;-63
2022/07/01 07:29:19;;;;;;;;;;;;;;;26.76;62.36;154388.67;1647322;85;20177;-62
2022/07/01 07:31:46;;;;;;;;;;;;;;;26.70;63.10;154372.95;1661783;84;20220;-63
2022/07/01 07:34:13;;;;;;;;;;;;;;;26.68;62.83;154369.00;1656078;85;20175;-63
2022/07/01 07:36:40;;;;;;;;;;;;;;;26.65;62.14;154359.84;1655494;85;21250;-63
2022/07/01 07:39:06;;;;;;;;;;;;;;;26.57;62.29;154340.17;1657608;84;20461;-63
2022/07/01 07:41:33;;;;;;;;;;;;;;;26.54;62.59;154333.59;1657055;85;20181;-64
2022/07/01 07:44:00;;;;;;;;;;;;;;;26.50;62.62;154323.12;1657944;84;20276;-63
2022/07/01 07:46:27;;;;;;;;;;;;;;;26.47;62.12;154315.27;1656240;84;20205;-64
2022/07/01 07:48:54;;;;;;;;;;;;;;;26.46;61.78;154313.92;1671579;84;21064;-64
2022/07/01 07:51:22;;;;;;;;;;;;;;;26.44;61.42;154308.69;1656145;84;20153;-64
2022/07/01 07:53:49;;;;;;;;;;;;;;;26.52;60.71;154327.03;1661276;84;20209;-64
2022/07/01 07:56:16;;;;;;;;;;;;;;;26.56;59.89;154338.84;1654971;84;20492;-64
2022/07/01 07:58:43;;;;;;;;;;;;;;;26.58;59.01;154344.08;1660444;84;20196;-64
2022/07/01 08:01:10;;;;;;;;;;;;;;;26.67;58.94;154365.09;1658353;84;21224;-64
2022/07/01 08:03:37;;;;;;;;;;;;;;;26.76;58.55;154387.39;1648342;84;20211;-64
2022/07/01 08:06:04;;;;;;;;;;;;;;;26.79;57.55;154396.53;1659594;85;20142;-64
2022/07/01 08:08:31;;;;;;;;;;;;;;;26.82;57.08;154404.39;1659859;84;20220;-64
2022/07/01 08:10:59;;;;;;;;;;;;;;;26.82;57.30;154403.11;1657031;85;20205;-64
2022/07/01 08:13:26;;;;;;;;;;;;;;;26.91;56.06;154426.75;1661141;84;21613;-64
2022/07/01 08:15:55;;;;;;;;;;;;;;;26.94;54.64;154433.31;1656324;85;20133;-64
2022/07/01 08:18:22;;;;;;;;;;;;;;;26.92;54.91;154429.36;1654345;85;20185;-64
2022/07/01 08:20:52;;;;;;;;;;;;;;;26.90;55.13;154424.13;1652508;85;20701;-64
2022/07/01 08:23:18;;;;;;;;;;;;;;;26.88;54.63;154420.22;1653350;85;20245;-64
2022/07/01 08:25:45;;;;;;;;;;;;;;;26.85;54.11;154411.02;1647489;85;22543;-64
2022/07/01 08:28:12;;;;;;;;;;;;;;;26.86;54.78;154414.97;1654809;85;20470;-63
2022/07/01 08:30:41;;;;;;;;;;;;;;;26.91;54.98;154425.45;1631357;86;20161;-64
2022/07/01 08:33:08;;;;;;;;;;;;;;;26.93;55.64;154430.70;1597095;88;20943;-64
2022/07/01 08:35:34;;;;;;;;;;;;;;;26.90;55.88;154424.13;1608534;88;20193;-64
2022/07/01 08:38:02;;;;;;;;;;;;;;;26.91;56.47;154425.45;1612559;87;22212;-64
2022/07/01 08:40:30;;;;;;;;;;;;;;;26.98;56.10;154443.80;1608025;87;20202;-64
2022/07/01 08:42:59;;;;;;;;;;;;;;;27.08;55.85;154468.72;1608521;87;20229;-63
2022/07/01 08:45:26;;;;;;;;;;;;;;;27.16;55.26;154491.03;1660331;84;20955;-63
2022/07/01 08:47:57;;;;;;;;;;;;;;;27.26;54.82;154514.61;1659070;84;20219;-64
2022/07/01 08:50:25;;;;;;;;;;;;;;;27.34;54.53;154534.30;1659157;84;21243;-63
2022/07/01 08:52:52;;;;;;;;;;;;;;;27.43;54.11;154559.22;1661854;84;20221;-64
2022/07/01 08:55:20;;;;;;;;;;;;;;;27.50;54.01;154576.28;1660647;84;20213;-63
2022/07/01 08:57:47;;;;;;;;;;;;;;;27.58;54.28;154596.02;1660512;84;20490;-64
2022/07/01 09:00:14;;;;;;;;;;;;;;;27.70;53.39;154627.47;1659284;84;20186;-64
2022/07/01 09:02:59;;;;;;;;;;;;;;;27.78;53.25;154645.88;1656109;84;21172;-64
2022/07/01 09:05:26;;;;;;;;;;;;;;;27.74;52.08;154638.02;1638688;86;20943;-64
2022/07/01 09:07:58;;;;;;;;;;;;;;;27.68;51.29;154622.23;1600889;88;20183;-64
2022/07/01 09:10:25;;;;;;;;;;;;;;;27.72;51.31;154632.72;1618562;87;20188;-64
2022/07/01 09:12:51;;;;;;;;;;;;;;;27.79;51.47;154648.50;1630826;86;20238;-64
2022/07/01 09:15:27;;;;;;;;;;;;;;;27.85;50.69;154664.23;1635210;85;21877;-65
2022/07/01 09:17:57;;;;;;;;;;;;;;;27.83;49.92;154660.27;1641585;87;20196;-64
2022/07/01 09:20:25;;;;;;;;;;;;;;;27.86;49.88;154666.84;1638876;85;20202;-64
2022/07/01 09:23:04;;;;;;;;;;;;;;;27.84;50.18;154661.61;1640422;85;20408;-64
2022/07/01 09:25:45;;;;;;;;;;;;;;;27.81;49.73;154653.75;1638681;86;20187;-64
2022/07/01 09:28:13;;;;;;;;;;;;;;;27.79;50.08;154648.50;1651206;85;21168;-64
2022/07/01 09:30:41;;;;;;;;;;;;;;;27.78;49.35;154645.88;1653600;85;20168;-64
2022/07/01 09:33:17;;;;;;;;;;;;;;;27.82;49.59;154656.36;1657086;85;20181;-64
2022/07/01 09:35:45;;;;;;;;;;;;;;;27.80;49.28;154652.41;1656536;85;20487;-64
2022/07/01 09:38:13;;;;;;;;;;;;;;;27.85;49.65;154664.23;1668715;84;20228;-65
2022/07/01 09:40:47;;;;;;;;;;;;;;;27.91;49.93;154679.97;1682535;84;21854;-65
2022/07/01 09:43:19;;;;;;;;;;;;;;;27.96;50.18;154693.06;1670875;84;20133;-65
2022/07/01 09:46:06;;;;;;;;;;;;;;;28.05;50.20;154714.09;1662819;84;20209;-65
2022/07/01 09:48:37;;;;;;;;;;;;;;;28.12;49.74;154733.78;1651413;85;20213;-65
2022/07/01 09:51:05;;;;;;;;;;;;;;;28.20;48.92;154753.53;1687502;84;20492;-65
2022/07/01 09:53:32;;;;;;;;;;;;;;;28.23;47.61;154761.39;1690112;83;21144;-64
2022/07/01 09:55:59;;;;;;;;;;;;;;;28.23;47.88;154761.39;1689716;84;20220;-64
2022/07/01 09:58:26;;;;;;;;;;;;;;;28.23;47.86;154761.39;1669924;83;20477;-64
2022/07/01 10:00:53;;;;;;;;;;;;;;;28.28;47.77;154774.50;1663533;86;20397;-64
2022/07/01 10:03:19;;;;;;;;;;;;;;;28.34;47.83;154788.95;1682575;84;20390;-65
2022/07/01 10:06:24;;;;;;;;;;;;;;;28.38;48.01;154799.44;1683911;84;21142;-65
2022/07/01 10:09:14;;;;;;;;;;;;;;;28.42;47.36;154809.94;1674699;84;20175;-64
2022/07/01 10:12:06;;;;;;;;;;;;;;;28.45;46.72;154816.52;1672209;84;20444;-64
2022/07/01 10:14:37;;;;;;;;;;;;;;;28.51;46.19;154830.92;1660530;86;20292;-65
2022/07/01 10:17:06;;;;;;;;;;;;;;;28.48;46.57;154824.39;1618577;85;20148;-65
2022/07/01 10:19:33;;;;;;;;;;;;;;;28.51;45.87;154832.25;1672778;85;21212;-64
2022/07/01 10:22:03;;;;;;;;;;;;;;;28.52;45.66;154834.88;1662394;85;20206;-64
2022/07/01 10:24:30;;;;;;;;;;;;;;;28.53;45.08;154837.50;1637793;84;20675;-64
2022/07/01 10:27:00;;;;;;;;;;;;;;;28.55;44.96;154842.75;1676613;83;20816;-64
2022/07/01 10:29:30;;;;;;;;;;;;;;;28.58;44.51;154849.33;1679686;83;20238;-64
2022/07/01 10:32:12;;;;;;;;;;;;;;;28.59;44.43;154853.23;1684092;84;21235;-64
2022/07/01 10:34:41;;;;;;;;;;;;;;;28.58;44.60;154849.33;1681084;84;20199;-64
2022/07/01 10:37:09;;;;;;;;;;;;;;;28.56;45.03;154845.38;1679973;84;20157;-63
2022/07/01 10:40:00;;;;;;;;;;;;;;;28.57;45.45;154847.98;1679054;84;20190;-63
2022/07/01 10:42:31;;;;;;;;;;;;;;;28.56;45.11;154844.08;1665628;85;20226;-64
2022/07/01 10:45:09;;;;;;;;;;;;;;;28.54;45.73;154840.13;1688970;83;21223;-63
2022/07/01 10:47:36;;;;;;;;;;;;;;;28.56;44.48;154845.38;1655541;86;20460;-63
2022/07/01 10:50:12;;;;;;;;;;;;;;;28.58;44.29;154849.33;1674857;85;20210;-63
2022/07/01 10:52:39;;;;;;;;;;;;;;;28.56;44.78;154845.38;1662011;85;20208;-63
2022/07/01 10:55:10;;;;;;;;;;;;;;;28.60;44.66;154855.86;1654030;84;20294;-64
2022/07/01 10:57:38;;;;;;;;;;;;;;;28.63;44.17;154861.11;1686699;83;21196;-65
2022/07/01 11:00:09;;;;;;;;;;;;;;;28.62;43.87;154859.81;1669536;84;20171;-65
2022/07/01 11:02:37;;;;;;;;;;;;;;;28.60;43.54;154854.58;1646803;85;20172;-65
2022/07/01 11:05:11;;;;;;;;;;;;;;;28.57;43.42;154846.70;1657569;86;20989;-65
2022/07/01 11:07:45;;;;;;;;;;;;;;;28.55;43.25;154842.75;1657985;85;20165;-65
2022/07/01 11:10:14;;;;;;;;;;;;;;;28.56;43.10;154845.38;1675691;85;21891;-65
2022/07/01 11:12:43;;;;;;;;;;;;;;;28.57;43.04;154847.98;1638613;85;20460;-65
2022/07/01 11:15:10;;;;;;;;;;;;;;;28.59;43.23;154853.23;1674104;84;20179;-65
2022/07/01 11:17:49;;;;;;;;;;;;;;;28.58;42.94;154850.61;1672111;84;20597;-64
2022/07/01 11:20:16;;;;;;;;;;;;;;;28.56;43.21;154845.38;1644204;86;20410;-64
2022/07/01 11:22:43;;;;;;;;;;;;;;;28.57;43.62;154847.98;1663219;85;21132;-64
2022/07/01 11:25:11;;;;;;;;;;;;;;;28.57;44.14;154847.98;1658526;85;20178;-63
2022/07/01 11:27:38;;;;;;;;;;;;;;;28.57;43.95;154846.70;1668512;85;20225;-64
2022/07/01 11:30:12;;;;;;;;;;;;;;;28.57;43.80;154847.98;1664262;85;20624;-64
2022/07/01 11:32:45;;;;;;;;;;;;;;;28.57;43.91;154847.98;1666413;84;20168;-64
2022/07/01 11:40:53;;;;;;;;;;;;;;;28.58;44.42;154850.61;1656593;84;20154;-64
2022/07/01 11:43:21;;;;;;;;;;;;;;;28.62;44.76;154858.48;1652041;85;20499;-64
2022/07/01 11:45:48;;;;;;;;;;;;;;;28.66;44.49;154870.31;1670238;85;20489;-64
2022/07/01 11:48:34;;;;;;;;;;;;;;;28.67;44.35;154872.94;1663216;84;21144;-64
2022/07/01 11:51:01;;;;;;;;;;;;;;;28.66;44.00;154870.31;1662241;85;20203;-64
2022/07/01 11:53:28;;;;;;;;;;;;;;;28.67;43.66;154871.66;1657717;85;20246;-64
2022/07/01 11:55:55;;;;;;;;;;;;;;;28.67;43.88;154872.94;1663317;85;20494;-64
2022/07/01 11:58:22;;;;;;;;;;;;;;;28.69;44.18;154876.89;1670007;85;20237;-64
2022/07/01 12:00:49;;;;;;;;;;;;;;;28.71;43.92;154883.42;1667613;85;21118;-64
2022/07/01 12:03:30;;;;;;;;;;;;;;;28.72;43.75;154884.77;1656787;84;20493;-64
2022/07/01 12:05:57;;;;;;;;;;;;;;;28.73;43.36;154887.39;1654171;85;20490;-64
2022/07/01 12:08:24;;;;;;;;;;;;;;;28.73;43.10;154887.39;1656499;86;20536;-64
2022/07/01 12:10:51;;;;;;;;;;;;;;;28.72;43.23;154886.05;1651777;85;20197;-65
2022/07/01 12:13:25;;;;;;;;;;;;;;;28.78;43.06;154899.22;1649651;86;21235;-64
2022/07/01 12:15:52;;;;;;;;;;;;;;;28.78;42.94;154900.50;1657232;85;20414;-64
2022/07/01 12:18:20;;;;;;;;;;;;;;;28.78;42.58;154900.50;1676984;85;20205;-64
2022/07/01 12:20:53;;;;;;;;;;;;;;;28.78;42.82;154899.22;1686447;83;20175;-64
2022/07/01 12:23:20;;;;;;;;;;;;;;;28.77;43.09;154897.87;1661871;85;20473;-64
2022/07/01 12:25:50;;;;;;;;;;;;;;;28.79;43.04;154903.17;1686359;84;22063;-64
2022/07/01 12:28:27;;;;;;;;;;;;;;;28.78;42.37;154899.22;1685023;84;20210;-64
2022/07/01 12:31:06;;;;;;;;;;;;;;;28.76;42.09;154895.25;1677869;84;20502;-65
2022/07/01 12:33:37;;;;;;;;;;;;;;;28.72;41.98;154884.77;1695587;84;20182;-64
2022/07/01 12:36:04;;;;;;;;;;;;;;;28.72;42.12;154884.77;1701793;84;20487;-64
2022/07/01 12:38:31;;;;;;;;;;;;;;;28.76;42.25;154895.25;1678704;84;21157;-64
2022/07/01 12:40:58;;;;;;;;;;;;;;;28.79;41.77;154901.84;1657791;83;20152;-65
2022/07/01 12:43:30;;;;;;;;;;;;;;;28.79;41.76;154901.84;1643801;86;20519;-65
2022/07/01 12:46:00;;;;;;;;;;;;;;;28.82;41.82;154911.05;1671833;84;20711;-64
2022/07/01 12:48:27;;;;;;;;;;;;;;;28.84;41.91;154916.28;1665673;84;20270;-65
2022/07/01 12:50:56;;;;;;;;;;;;;;;28.85;41.99;154918.97;1659770;85;21269;-65
2022/07/01 12:53:23;;;;;;;;;;;;;;;28.85;42.02;154917.63;1670283;85;20236;-65
2022/07/01 12:55:54;;;;;;;;;;;;;;;28.82;41.78;154911.05;1671262;85;20108;-65